<?xml version="1.0" encoding="UTF-8" standalone="no" ?>
<gpx xmlns="http://www.topografix.com/GPX/1/1" xmlns:xsi="http://www.w3.org/2001/XMLSchema-instance" xsi:schemaLocation="http://www.topografix.com/GPX/1/1 http://www.topografix.com/GPX/1/1/gpx.xsd" version="1.1" creator="VisuGPX - https://www.visugpx.com">
  <metadata>
    <name>parcours wallers 30km serge</name>
  </metadata>
  <trk>
    <name><![CDATA[parcours wallers 30km serge]]></name>
    <extensions>
      <line xmlns="http://www.topografix.com/GPX/gpx_style/0/2">
        <color>0000FF</color>
        <width>4</width>
      </line>
    </extensions>
    <trkseg>
      <trkpt lat="50.37437" lon="3.39903">
        <ele>22.24</ele>
        <time>2024-05-13T12:18:21.000Z</time>
      </trkpt>
      <trkpt lat="50.37432" lon="3.39897">
        <ele>22.23</ele>
        <time>2024-05-13T12:18:21.001Z</time>
      </trkpt>
      <trkpt lat="50.37424" lon="3.39895">
        <ele>22.17</ele>
        <time>2024-05-13T12:18:21.003Z</time>
      </trkpt>
      <trkpt lat="50.37409" lon="3.39899">
        <ele>21.98</ele>
        <time>2024-05-13T12:18:21.008Z</time>
      </trkpt>
      <trkpt lat="50.37397" lon="3.3985">
        <ele>21.71</ele>
        <time>2024-05-13T12:18:21.018Z</time>
      </trkpt>
      <trkpt lat="50.37392" lon="3.39839">
        <ele>21.59</ele>
        <time>2024-05-13T12:18:21.030Z</time>
      </trkpt>
      <trkpt lat="50.37391" lon="3.39823">
        <ele>21.61</ele>
        <time>2024-05-13T12:18:21.043Z</time>
      </trkpt>
      <trkpt lat="50.37386" lon="3.39715">
        <ele>21.74</ele>
        <time>2024-05-13T12:18:21.067Z</time>
      </trkpt>
      <trkpt lat="50.37384" lon="3.39683">
        <ele>21.83</ele>
        <time>2024-05-13T12:18:21.095Z</time>
      </trkpt>
      <trkpt lat="50.37379" lon="3.39647">
        <ele>21.9</ele>
        <time>2024-05-13T12:18:21.126Z</time>
      </trkpt>
      <trkpt lat="50.37363" lon="3.39523">
        <ele>22.1</ele>
        <time>2024-05-13T12:18:21.170Z</time>
      </trkpt>
      <trkpt lat="50.37353" lon="3.39438">
        <ele>22.45</ele>
        <time>2024-05-13T12:18:21.223Z</time>
      </trkpt>
      <trkpt lat="50.37347" lon="3.39395">
        <ele>22.63</ele>
        <time>2024-05-13T12:18:21.281Z</time>
      </trkpt>
      <trkpt lat="50.37341" lon="3.39369">
        <ele>22.74</ele>
        <time>2024-05-13T12:18:21.341Z</time>
      </trkpt>
      <trkpt lat="50.37333" lon="3.39332">
        <ele>22.81</ele>
        <time>2024-05-13T12:18:21.405Z</time>
      </trkpt>
      <trkpt lat="50.37334" lon="3.39314">
        <ele>22.83</ele>
        <time>2024-05-13T12:18:21.471Z</time>
      </trkpt>
      <trkpt lat="50.37337" lon="3.39289">
        <ele>22.91</ele>
        <time>2024-05-13T12:18:21.540Z</time>
      </trkpt>
      <trkpt lat="50.37339" lon="3.39276">
        <ele>22.98</ele>
        <time>2024-05-13T12:18:21.610Z</time>
      </trkpt>
      <trkpt lat="50.37337" lon="3.39229">
        <ele>23.1</ele>
        <time>2024-05-13T12:18:21.685Z</time>
      </trkpt>
      <trkpt lat="50.37337" lon="3.3922">
        <ele>23.26</ele>
        <time>2024-05-13T12:18:21.761Z</time>
      </trkpt>
      <trkpt lat="50.37335" lon="3.39199">
        <ele>23.54</ele>
        <time>2024-05-13T12:18:21.839Z</time>
      </trkpt>
      <trkpt lat="50.37329" lon="3.39176">
        <ele>23.76</ele>
        <time>2024-05-13T12:18:21.920Z</time>
      </trkpt>
      <trkpt lat="50.37313" lon="3.39123">
        <ele>23.91</ele>
        <time>2024-05-13T12:18:22.007Z</time>
      </trkpt>
      <trkpt lat="50.37295" lon="3.39016">
        <ele>24.1</ele>
        <time>2024-05-13T12:18:22.105Z</time>
      </trkpt>
      <trkpt lat="50.37291" lon="3.38979">
        <ele>24.13</ele>
        <time>2024-05-13T12:18:22.207Z</time>
      </trkpt>
      <trkpt lat="50.37293" lon="3.38967">
        <ele>24.11</ele>
        <time>2024-05-13T12:18:22.310Z</time>
      </trkpt>
      <trkpt lat="50.37293" lon="3.3896">
        <ele>24.11</ele>
        <time>2024-05-13T12:18:22.414Z</time>
      </trkpt>
      <trkpt lat="50.3729" lon="3.38955">
        <ele>24.12</ele>
        <time>2024-05-13T12:18:22.519Z</time>
      </trkpt>
      <trkpt lat="50.37285" lon="3.38954">
        <ele>24.13</ele>
        <time>2024-05-13T12:18:22.624Z</time>
      </trkpt>
      <trkpt lat="50.37283" lon="3.38955">
        <ele>24.17</ele>
        <time>2024-05-13T12:18:22.730Z</time>
      </trkpt>
      <trkpt lat="50.37269" lon="3.38945">
        <ele>24.24</ele>
        <time>2024-05-13T12:18:22.838Z</time>
      </trkpt>
      <trkpt lat="50.37259" lon="3.38943">
        <ele>24.36</ele>
        <time>2024-05-13T12:18:22.948Z</time>
      </trkpt>
      <trkpt lat="50.37244" lon="3.38933">
        <ele>24.51</ele>
        <time>2024-05-13T12:18:23.060Z</time>
      </trkpt>
      <trkpt lat="50.37234" lon="3.38928">
        <ele>24.67</ele>
        <time>2024-05-13T12:18:23.174Z</time>
      </trkpt>
      <trkpt lat="50.37178" lon="3.3891">
        <ele>24.81</ele>
        <time>2024-05-13T12:18:23.297Z</time>
      </trkpt>
      <trkpt lat="50.37168" lon="3.38901">
        <ele>24.9</ele>
        <time>2024-05-13T12:18:23.422Z</time>
      </trkpt>
      <trkpt lat="50.37159" lon="3.38883">
        <ele>25.03</ele>
        <time>2024-05-13T12:18:23.549Z</time>
      </trkpt>
      <trkpt lat="50.37151" lon="3.38823">
        <ele>25.22</ele>
        <time>2024-05-13T12:18:23.683Z</time>
      </trkpt>
      <trkpt lat="50.37146" lon="3.38786">
        <ele>25.43</ele>
        <time>2024-05-13T12:18:23.821Z</time>
      </trkpt>
      <trkpt lat="50.37141" lon="3.38771">
        <ele>25.67</ele>
        <time>2024-05-13T12:18:23.960Z</time>
      </trkpt>
      <trkpt lat="50.37133" lon="3.38752">
        <ele>25.94</ele>
        <time>2024-05-13T12:18:24.102Z</time>
      </trkpt>
      <trkpt lat="50.37127" lon="3.38741">
        <ele>26.24</ele>
        <time>2024-05-13T12:18:24.245Z</time>
      </trkpt>
      <trkpt lat="50.37111" lon="3.3872">
        <ele>26.62</ele>
        <time>2024-05-13T12:18:24.392Z</time>
      </trkpt>
      <trkpt lat="50.37075" lon="3.38685">
        <ele>26.99</ele>
        <time>2024-05-13T12:18:24.545Z</time>
      </trkpt>
      <trkpt lat="50.36912" lon="3.38523">
        <ele>27.47</ele>
        <time>2024-05-13T12:18:24.729Z</time>
      </trkpt>
      <trkpt lat="50.36897" lon="3.38507">
        <ele>27.82</ele>
        <time>2024-05-13T12:18:24.916Z</time>
      </trkpt>
      <trkpt lat="50.36873" lon="3.38475">
        <ele>28.27</ele>
        <time>2024-05-13T12:18:25.108Z</time>
      </trkpt>
      <trkpt lat="50.36858" lon="3.3845">
        <ele>28.86</ele>
        <time>2024-05-13T12:18:25.304Z</time>
      </trkpt>
      <trkpt lat="50.3685" lon="3.38431">
        <ele>29.35</ele>
        <time>2024-05-13T12:18:25.502Z</time>
      </trkpt>
      <trkpt lat="50.3683" lon="3.38372">
        <ele>29.87</ele>
        <time>2024-05-13T12:18:25.707Z</time>
      </trkpt>
      <trkpt lat="50.36806" lon="3.38257">
        <ele>30.44</ele>
        <time>2024-05-13T12:18:25.924Z</time>
      </trkpt>
      <trkpt lat="50.36767" lon="3.38096">
        <ele>30.97</ele>
        <time>2024-05-13T12:18:26.159Z</time>
      </trkpt>
      <trkpt lat="50.36758" lon="3.38053">
        <ele>31.55</ele>
        <time>2024-05-13T12:18:26.399Z</time>
      </trkpt>
      <trkpt lat="50.36752" lon="3.3801">
        <ele>31.97</ele>
        <time>2024-05-13T12:18:26.643Z</time>
      </trkpt>
      <trkpt lat="50.36735" lon="3.37869">
        <ele>32.29</ele>
        <time>2024-05-13T12:18:26.902Z</time>
      </trkpt>
      <trkpt lat="50.36722" lon="3.37775">
        <ele>32.67</ele>
        <time>2024-05-13T12:18:27.171Z</time>
      </trkpt>
      <trkpt lat="50.36703" lon="3.37664">
        <ele>32.8</ele>
        <time>2024-05-13T12:18:27.451Z</time>
      </trkpt>
      <trkpt lat="50.36685" lon="3.37588">
        <ele>32.81</ele>
        <time>2024-05-13T12:18:27.740Z</time>
      </trkpt>
      <trkpt lat="50.36658" lon="3.37484">
        <ele>32.91</ele>
        <time>2024-05-13T12:18:28.040Z</time>
      </trkpt>
      <trkpt lat="50.36628" lon="3.37381">
        <ele>32.73</ele>
        <time>2024-05-13T12:18:28.352Z</time>
      </trkpt>
      <trkpt lat="50.36605" lon="3.3731">
        <ele>32.45</ele>
        <time>2024-05-13T12:18:28.672Z</time>
      </trkpt>
      <trkpt lat="50.36565" lon="3.37203">
        <ele>31.95</ele>
        <time>2024-05-13T12:18:29.005Z</time>
      </trkpt>
      <trkpt lat="50.36539" lon="3.37119">
        <ele>31.26</ele>
        <time>2024-05-13T12:18:29.347Z</time>
      </trkpt>
      <trkpt lat="50.36521" lon="3.37051">
        <ele>30.82</ele>
        <time>2024-05-13T12:18:29.697Z</time>
      </trkpt>
      <trkpt lat="50.36495" lon="3.36964">
        <ele>30.14</ele>
        <time>2024-05-13T12:18:30.057Z</time>
      </trkpt>
      <trkpt lat="50.36392" lon="3.36689">
        <ele>29.46</ele>
        <time>2024-05-13T12:18:30.449Z</time>
      </trkpt>
      <trkpt lat="50.36368" lon="3.36625">
        <ele>28.85</ele>
        <time>2024-05-13T12:18:30.849Z</time>
      </trkpt>
      <trkpt lat="50.36354" lon="3.36582">
        <ele>28.38</ele>
        <time>2024-05-13T12:18:31.254Z</time>
      </trkpt>
      <trkpt lat="50.36345" lon="3.36547">
        <ele>28.01</ele>
        <time>2024-05-13T12:18:31.663Z</time>
      </trkpt>
      <trkpt lat="50.36334" lon="3.36495">
        <ele>27.74</ele>
        <time>2024-05-13T12:18:32.077Z</time>
      </trkpt>
      <trkpt lat="50.36316" lon="3.36415">
        <ele>27.77</ele>
        <time>2024-05-13T12:18:32.500Z</time>
      </trkpt>
      <trkpt lat="50.36305" lon="3.36364">
        <ele>27.83</ele>
        <time>2024-05-13T12:18:32.928Z</time>
      </trkpt>
      <trkpt lat="50.36296" lon="3.36333">
        <ele>27.86</ele>
        <time>2024-05-13T12:18:33.360Z</time>
      </trkpt>
      <trkpt lat="50.36258" lon="3.36265">
        <ele>27.89</ele>
        <time>2024-05-13T12:18:33.801Z</time>
      </trkpt>
      <trkpt lat="50.36244" lon="3.36236">
        <ele>27.92</ele>
        <time>2024-05-13T12:18:34.246Z</time>
      </trkpt>
      <trkpt lat="50.36234" lon="3.362">
        <ele>27.73</ele>
        <time>2024-05-13T12:18:34.695Z</time>
      </trkpt>
      <trkpt lat="50.36234" lon="3.36135">
        <ele>27.26</ele>
        <time>2024-05-13T12:18:35.151Z</time>
      </trkpt>
      <trkpt lat="50.36235" lon="3.36111">
        <ele>27.07</ele>
        <time>2024-05-13T12:18:35.609Z</time>
      </trkpt>
      <trkpt lat="50.36239" lon="3.36104">
        <ele>26.93</ele>
        <time>2024-05-13T12:18:36.068Z</time>
      </trkpt>
      <trkpt lat="50.3624" lon="3.36101">
        <ele>27.17</ele>
        <time>2024-05-13T12:18:36.527Z</time>
      </trkpt>
      <trkpt lat="50.36243" lon="3.36089">
        <ele>27.17</ele>
        <time>2024-05-13T12:18:36.988Z</time>
      </trkpt>
      <trkpt lat="50.36244" lon="3.36076">
        <ele>27.12</ele>
        <time>2024-05-13T12:18:37.450Z</time>
      </trkpt>
      <trkpt lat="50.36258" lon="3.36082">
        <ele>27.07</ele>
        <time>2024-05-13T12:18:37.914Z</time>
      </trkpt>
      <trkpt lat="50.36274" lon="3.36088">
        <ele>26.98</ele>
        <time>2024-05-13T12:18:38.381Z</time>
      </trkpt>
      <trkpt lat="50.36281" lon="3.36088">
        <ele>26.74</ele>
        <time>2024-05-13T12:18:38.849Z</time>
      </trkpt>
      <trkpt lat="50.36293" lon="3.36083">
        <ele>26.46</ele>
        <time>2024-05-13T12:18:39.319Z</time>
      </trkpt>
      <trkpt lat="50.36314" lon="3.36059">
        <ele>25.98</ele>
        <time>2024-05-13T12:18:39.793Z</time>
      </trkpt>
      <trkpt lat="50.36347" lon="3.36023">
        <ele>25.53</ele>
        <time>2024-05-13T12:18:40.274Z</time>
      </trkpt>
      <trkpt lat="50.36387" lon="3.35983">
        <ele>25.12</ele>
        <time>2024-05-13T12:18:40.762Z</time>
      </trkpt>
      <trkpt lat="50.36429" lon="3.35922">
        <ele>24.51</ele>
        <time>2024-05-13T12:18:41.260Z</time>
      </trkpt>
      <trkpt lat="50.36467" lon="3.35871">
        <ele>23.97</ele>
        <time>2024-05-13T12:18:41.766Z</time>
      </trkpt>
      <trkpt lat="50.36576" lon="3.35763">
        <ele>23.52</ele>
        <time>2024-05-13T12:18:42.292Z</time>
      </trkpt>
      <trkpt lat="50.36621" lon="3.35719">
        <ele>23.29</ele>
        <time>2024-05-13T12:18:42.827Z</time>
      </trkpt>
      <trkpt lat="50.36684" lon="3.3567">
        <ele>23.05</ele>
        <time>2024-05-13T12:18:43.373Z</time>
      </trkpt>
      <trkpt lat="50.36691" lon="3.3567">
        <ele>22.79</ele>
        <time>2024-05-13T12:18:43.920Z</time>
      </trkpt>
      <trkpt lat="50.36731" lon="3.35695">
        <ele>22.56</ele>
        <time>2024-05-13T12:18:44.474Z</time>
      </trkpt>
      <trkpt lat="50.3684" lon="3.35757">
        <ele>22.08</ele>
        <time>2024-05-13T12:18:45.047Z</time>
      </trkpt>
      <trkpt lat="50.3693" lon="3.35808">
        <ele>21.77</ele>
        <time>2024-05-13T12:18:45.635Z</time>
      </trkpt>
      <trkpt lat="50.36969" lon="3.35824">
        <ele>21.42</ele>
        <time>2024-05-13T12:18:46.229Z</time>
      </trkpt>
      <trkpt lat="50.37004" lon="3.35834">
        <ele>21.09</ele>
        <time>2024-05-13T12:18:46.829Z</time>
      </trkpt>
      <trkpt lat="50.37173" lon="3.35889">
        <ele>20.52</ele>
        <time>2024-05-13T12:18:47.457Z</time>
      </trkpt>
      <trkpt lat="50.37253" lon="3.35914">
        <ele>20.21</ele>
        <time>2024-05-13T12:18:48.098Z</time>
      </trkpt>
      <trkpt lat="50.37303" lon="3.35938">
        <ele>19.76</ele>
        <time>2024-05-13T12:18:48.747Z</time>
      </trkpt>
      <trkpt lat="50.37396" lon="3.35985">
        <ele>19.3</ele>
        <time>2024-05-13T12:18:49.412Z</time>
      </trkpt>
      <trkpt lat="50.37416" lon="3.35993">
        <ele>19.05</ele>
        <time>2024-05-13T12:18:50.080Z</time>
      </trkpt>
      <trkpt lat="50.37446" lon="3.35999">
        <ele>18.97</ele>
        <time>2024-05-13T12:18:50.753Z</time>
      </trkpt>
      <trkpt lat="50.37464" lon="3.35999">
        <ele>19.03</ele>
        <time>2024-05-13T12:18:51.429Z</time>
      </trkpt>
      <trkpt lat="50.37486" lon="3.35996">
        <ele>19.11</ele>
        <time>2024-05-13T12:18:52.108Z</time>
      </trkpt>
      <trkpt lat="50.37508" lon="3.35996">
        <ele>19.08</ele>
        <time>2024-05-13T12:18:52.791Z</time>
      </trkpt>
      <trkpt lat="50.37539" lon="3.36002">
        <ele>18.87</ele>
        <time>2024-05-13T12:18:53.479Z</time>
      </trkpt>
      <trkpt lat="50.37554" lon="3.36009">
        <ele>18.64</ele>
        <time>2024-05-13T12:18:54.169Z</time>
      </trkpt>
      <trkpt lat="50.37565" lon="3.36018">
        <ele>18.41</ele>
        <time>2024-05-13T12:18:54.861Z</time>
      </trkpt>
      <trkpt lat="50.37595" lon="3.36045">
        <ele>18.47</ele>
        <time>2024-05-13T12:18:55.559Z</time>
      </trkpt>
      <trkpt lat="50.37717" lon="3.3616">
        <ele>18.93</ele>
        <time>2024-05-13T12:18:56.280Z</time>
      </trkpt>
      <trkpt lat="50.37741" lon="3.36183">
        <ele>19.06</ele>
        <time>2024-05-13T12:18:57.005Z</time>
      </trkpt>
      <trkpt lat="50.37783" lon="3.36217">
        <ele>19.08</ele>
        <time>2024-05-13T12:18:57.738Z</time>
      </trkpt>
      <trkpt lat="50.378" lon="3.36226">
        <ele>19.07</ele>
        <time>2024-05-13T12:18:58.474Z</time>
      </trkpt>
      <trkpt lat="50.37816" lon="3.36234">
        <ele>18.86</ele>
        <time>2024-05-13T12:18:59.212Z</time>
      </trkpt>
      <trkpt lat="50.37888" lon="3.36255">
        <ele>18.66</ele>
        <time>2024-05-13T12:18:59.962Z</time>
      </trkpt>
      <trkpt lat="50.37919" lon="3.36269">
        <ele>18.13</ele>
        <time>2024-05-13T12:19:00.717Z</time>
      </trkpt>
      <trkpt lat="50.37937" lon="3.3628">
        <ele>17.51</ele>
        <time>2024-05-13T12:19:01.475Z</time>
      </trkpt>
      <trkpt lat="50.3803" lon="3.36338">
        <ele>17.02</ele>
        <time>2024-05-13T12:19:02.249Z</time>
      </trkpt>
      <trkpt lat="50.38129" lon="3.36401">
        <ele>16.92</ele>
        <time>2024-05-13T12:19:03.041Z</time>
      </trkpt>
      <trkpt lat="50.38155" lon="3.36417">
        <ele>16.78</ele>
        <time>2024-05-13T12:19:03.837Z</time>
      </trkpt>
      <trkpt lat="50.38172" lon="3.36431">
        <ele>16.71</ele>
        <time>2024-05-13T12:19:04.636Z</time>
      </trkpt>
      <trkpt lat="50.38194" lon="3.36457">
        <ele>16.7</ele>
        <time>2024-05-13T12:19:05.440Z</time>
      </trkpt>
      <trkpt lat="50.38239" lon="3.36504">
        <ele>16.55</ele>
        <time>2024-05-13T12:19:06.252Z</time>
      </trkpt>
      <trkpt lat="50.3843" lon="3.36698">
        <ele>16.88</ele>
        <time>2024-05-13T12:19:07.101Z</time>
      </trkpt>
      <trkpt lat="50.38562" lon="3.36836">
        <ele>16.94</ele>
        <time>2024-05-13T12:19:07.975Z</time>
      </trkpt>
      <trkpt lat="50.38681" lon="3.36964">
        <ele>17.46</ele>
        <time>2024-05-13T12:19:08.872Z</time>
      </trkpt>
      <trkpt lat="50.38696" lon="3.3698">
        <ele>17.74</ele>
        <time>2024-05-13T12:19:09.772Z</time>
      </trkpt>
      <trkpt lat="50.38785" lon="3.37074">
        <ele>17.34</ele>
        <time>2024-05-13T12:19:10.689Z</time>
      </trkpt>
      <trkpt lat="50.38845" lon="3.37136">
        <ele>16.99</ele>
        <time>2024-05-13T12:19:11.618Z</time>
      </trkpt>
      <trkpt lat="50.39053" lon="3.37355">
        <ele>17.63</ele>
        <time>2024-05-13T12:19:12.587Z</time>
      </trkpt>
      <trkpt lat="50.39066" lon="3.37366">
        <ele>17.66</ele>
        <time>2024-05-13T12:19:13.558Z</time>
      </trkpt>
      <trkpt lat="50.39079" lon="3.37372">
        <ele>17.64</ele>
        <time>2024-05-13T12:19:14.532Z</time>
      </trkpt>
      <trkpt lat="50.39152" lon="3.37399">
        <ele>17.45</ele>
        <time>2024-05-13T12:19:15.518Z</time>
      </trkpt>
      <trkpt lat="50.39218" lon="3.37431">
        <ele>17.36</ele>
        <time>2024-05-13T12:19:16.515Z</time>
      </trkpt>
      <trkpt lat="50.39285" lon="3.37468">
        <ele>17.06</ele>
        <time>2024-05-13T12:19:17.523Z</time>
      </trkpt>
      <trkpt lat="50.3942" lon="3.3755">
        <ele>16.59</ele>
        <time>2024-05-13T12:19:18.554Z</time>
      </trkpt>
      <trkpt lat="50.39479" lon="3.37587">
        <ele>16.46</ele>
        <time>2024-05-13T12:19:19.595Z</time>
      </trkpt>
      <trkpt lat="50.39493" lon="3.376">
        <ele>16.28</ele>
        <time>2024-05-13T12:19:20.639Z</time>
      </trkpt>
      <trkpt lat="50.39516" lon="3.37628">
        <ele>16.3</ele>
        <time>2024-05-13T12:19:21.688Z</time>
      </trkpt>
      <trkpt lat="50.39558" lon="3.3769">
        <ele>16.25</ele>
        <time>2024-05-13T12:19:22.746Z</time>
      </trkpt>
      <trkpt lat="50.39588" lon="3.37732">
        <ele>16.5</ele>
        <time>2024-05-13T12:19:23.810Z</time>
      </trkpt>
      <trkpt lat="50.39616" lon="3.3775">
        <ele>16.99</ele>
        <time>2024-05-13T12:19:24.879Z</time>
      </trkpt>
      <trkpt lat="50.39662" lon="3.37765">
        <ele>17.89</ele>
        <time>2024-05-13T12:19:25.956Z</time>
      </trkpt>
      <trkpt lat="50.39722" lon="3.37767">
        <ele>19.88</ele>
        <time>2024-05-13T12:19:27.042Z</time>
      </trkpt>
      <trkpt lat="50.39759" lon="3.37756">
        <ele>22.34</ele>
        <time>2024-05-13T12:19:28.134Z</time>
      </trkpt>
      <trkpt lat="50.39773" lon="3.37754">
        <ele>24.39</ele>
        <time>2024-05-13T12:19:29.229Z</time>
      </trkpt>
      <trkpt lat="50.39801" lon="3.37757">
        <ele>26.43</ele>
        <time>2024-05-13T12:19:30.328Z</time>
      </trkpt>
      <trkpt lat="50.3982" lon="3.37763">
        <ele>28.03</ele>
        <time>2024-05-13T12:19:31.430Z</time>
      </trkpt>
      <trkpt lat="50.39861" lon="3.37768">
        <ele>29.42</ele>
        <time>2024-05-13T12:19:32.539Z</time>
      </trkpt>
      <trkpt lat="50.3988" lon="3.37769">
        <ele>29.86</ele>
        <time>2024-05-13T12:19:33.651Z</time>
      </trkpt>
      <trkpt lat="50.39904" lon="3.37769">
        <ele>29.7</ele>
        <time>2024-05-13T12:19:34.767Z</time>
      </trkpt>
      <trkpt lat="50.39926" lon="3.37768">
        <ele>29</ele>
        <time>2024-05-13T12:19:35.886Z</time>
      </trkpt>
      <trkpt lat="50.39985" lon="3.3776">
        <ele>27.84</ele>
        <time>2024-05-13T12:19:37.015Z</time>
      </trkpt>
      <trkpt lat="50.40038" lon="3.37751">
        <ele>26.74</ele>
        <time>2024-05-13T12:19:38.152Z</time>
      </trkpt>
      <trkpt lat="50.40092" lon="3.37742">
        <ele>25.76</ele>
        <time>2024-05-13T12:19:39.298Z</time>
      </trkpt>
      <trkpt lat="50.40113" lon="3.37741">
        <ele>25.24</ele>
        <time>2024-05-13T12:19:40.447Z</time>
      </trkpt>
      <trkpt lat="50.40131" lon="3.37743">
        <ele>25.16</ele>
        <time>2024-05-13T12:19:41.599Z</time>
      </trkpt>
      <trkpt lat="50.40149" lon="3.37749">
        <ele>25.35</ele>
        <time>2024-05-13T12:19:42.754Z</time>
      </trkpt>
      <trkpt lat="50.40167" lon="3.37759">
        <ele>25.75</ele>
        <time>2024-05-13T12:19:43.912Z</time>
      </trkpt>
      <trkpt lat="50.40182" lon="3.37773">
        <ele>26.17</ele>
        <time>2024-05-13T12:19:45.073Z</time>
      </trkpt>
      <trkpt lat="50.40198" lon="3.37788">
        <ele>26.18</ele>
        <time>2024-05-13T12:19:46.237Z</time>
      </trkpt>
      <trkpt lat="50.40218" lon="3.37804">
        <ele>25.59</ele>
        <time>2024-05-13T12:19:47.405Z</time>
      </trkpt>
      <trkpt lat="50.40343" lon="3.37915">
        <ele>23.31</ele>
        <time>2024-05-13T12:19:48.596Z</time>
      </trkpt>
      <trkpt lat="50.40481" lon="3.38039">
        <ele>22.59</ele>
        <time>2024-05-13T12:19:49.812Z</time>
      </trkpt>
      <trkpt lat="50.40834" lon="3.38356">
        <ele>20.47</ele>
        <time>2024-05-13T12:19:51.093Z</time>
      </trkpt>
      <trkpt lat="50.40875" lon="3.38391">
        <ele>17.53</ele>
        <time>2024-05-13T12:19:52.382Z</time>
      </trkpt>
      <trkpt lat="50.40885" lon="3.38393">
        <ele>17.16</ele>
        <time>2024-05-13T12:19:53.672Z</time>
      </trkpt>
      <trkpt lat="50.40892" lon="3.38393">
        <ele>16.95</ele>
        <time>2024-05-13T12:19:54.964Z</time>
      </trkpt>
      <trkpt lat="50.40907" lon="3.38386">
        <ele>16.93</ele>
        <time>2024-05-13T12:19:56.258Z</time>
      </trkpt>
      <trkpt lat="50.40921" lon="3.38376">
        <ele>17.09</ele>
        <time>2024-05-13T12:19:57.555Z</time>
      </trkpt>
      <trkpt lat="50.40951" lon="3.38361">
        <ele>17.34</ele>
        <time>2024-05-13T12:19:58.857Z</time>
      </trkpt>
      <trkpt lat="50.41006" lon="3.38336">
        <ele>17.24</ele>
        <time>2024-05-13T12:20:00.168Z</time>
      </trkpt>
      <trkpt lat="50.41012" lon="3.38336">
        <ele>17.33</ele>
        <time>2024-05-13T12:20:01.480Z</time>
      </trkpt>
      <trkpt lat="50.41024" lon="3.38339">
        <ele>17.44</ele>
        <time>2024-05-13T12:20:02.794Z</time>
      </trkpt>
      <trkpt lat="50.41042" lon="3.38351">
        <ele>17.63</ele>
        <time>2024-05-13T12:20:04.111Z</time>
      </trkpt>
      <trkpt lat="50.41154" lon="3.38438">
        <ele>17.95</ele>
        <time>2024-05-13T12:20:05.448Z</time>
      </trkpt>
      <trkpt lat="50.41168" lon="3.38449">
        <ele>18.22</ele>
        <time>2024-05-13T12:20:06.787Z</time>
      </trkpt>
      <trkpt lat="50.41182" lon="3.38455">
        <ele>18.46</ele>
        <time>2024-05-13T12:20:08.129Z</time>
      </trkpt>
      <trkpt lat="50.41252" lon="3.38478">
        <ele>18.78</ele>
        <time>2024-05-13T12:20:09.482Z</time>
      </trkpt>
      <trkpt lat="50.413" lon="3.38499">
        <ele>19.26</ele>
        <time>2024-05-13T12:20:10.843Z</time>
      </trkpt>
      <trkpt lat="50.41322" lon="3.38512">
        <ele>19.53</ele>
        <time>2024-05-13T12:20:12.208Z</time>
      </trkpt>
      <trkpt lat="50.41332" lon="3.3852">
        <ele>19.73</ele>
        <time>2024-05-13T12:20:13.575Z</time>
      </trkpt>
      <trkpt lat="50.41368" lon="3.38543">
        <ele>19.97</ele>
        <time>2024-05-13T12:20:14.948Z</time>
      </trkpt>
      <trkpt lat="50.4139" lon="3.38558">
        <ele>20.01</ele>
        <time>2024-05-13T12:20:16.325Z</time>
      </trkpt>
      <trkpt lat="50.41417" lon="3.38568">
        <ele>19.95</ele>
        <time>2024-05-13T12:20:17.706Z</time>
      </trkpt>
      <trkpt lat="50.41443" lon="3.38579">
        <ele>19.72</ele>
        <time>2024-05-13T12:20:19.092Z</time>
      </trkpt>
      <trkpt lat="50.41468" lon="3.38584">
        <ele>19.51</ele>
        <time>2024-05-13T12:20:20.482Z</time>
      </trkpt>
      <trkpt lat="50.41492" lon="3.38588">
        <ele>19.46</ele>
        <time>2024-05-13T12:20:21.875Z</time>
      </trkpt>
      <trkpt lat="50.41514" lon="3.38595">
        <ele>19.41</ele>
        <time>2024-05-13T12:20:23.272Z</time>
      </trkpt>
      <trkpt lat="50.41565" lon="3.38637">
        <ele>19.15</ele>
        <time>2024-05-13T12:20:24.678Z</time>
      </trkpt>
      <trkpt lat="50.41624" lon="3.38687">
        <ele>18.79</ele>
        <time>2024-05-13T12:20:26.095Z</time>
      </trkpt>
      <trkpt lat="50.41639" lon="3.38699">
        <ele>18.61</ele>
        <time>2024-05-13T12:20:27.515Z</time>
      </trkpt>
      <trkpt lat="50.41659" lon="3.3871">
        <ele>18.44</ele>
        <time>2024-05-13T12:20:28.938Z</time>
      </trkpt>
      <trkpt lat="50.41664" lon="3.38711">
        <ele>18.29</ele>
        <time>2024-05-13T12:20:30.362Z</time>
      </trkpt>
      <trkpt lat="50.41668" lon="3.38716">
        <ele>18.17</ele>
        <time>2024-05-13T12:20:31.787Z</time>
      </trkpt>
      <trkpt lat="50.41679" lon="3.38726">
        <ele>18.07</ele>
        <time>2024-05-13T12:20:33.214Z</time>
      </trkpt>
      <trkpt lat="50.41687" lon="3.38738">
        <ele>17.99</ele>
        <time>2024-05-13T12:20:34.643Z</time>
      </trkpt>
      <trkpt lat="50.41681" lon="3.38775">
        <ele>17.99</ele>
        <time>2024-05-13T12:20:36.075Z</time>
      </trkpt>
      <trkpt lat="50.41675" lon="3.38816">
        <ele>17.92</ele>
        <time>2024-05-13T12:20:37.512Z</time>
      </trkpt>
      <trkpt lat="50.41666" lon="3.38878">
        <ele>17.79</ele>
        <time>2024-05-13T12:20:38.955Z</time>
      </trkpt>
      <trkpt lat="50.41659" lon="3.38913">
        <ele>17.83</ele>
        <time>2024-05-13T12:20:40.402Z</time>
      </trkpt>
      <trkpt lat="50.41651" lon="3.38943">
        <ele>18.02</ele>
        <time>2024-05-13T12:20:41.852Z</time>
      </trkpt>
      <trkpt lat="50.41637" lon="3.38975">
        <ele>18.18</ele>
        <time>2024-05-13T12:20:43.306Z</time>
      </trkpt>
      <trkpt lat="50.41627" lon="3.38996">
        <ele>18.17</ele>
        <time>2024-05-13T12:20:44.763Z</time>
      </trkpt>
      <trkpt lat="50.41597" lon="3.3905">
        <ele>18.19</ele>
        <time>2024-05-13T12:20:46.227Z</time>
      </trkpt>
      <trkpt lat="50.41546" lon="3.39135">
        <ele>18.28</ele>
        <time>2024-05-13T12:20:47.703Z</time>
      </trkpt>
      <trkpt lat="50.41528" lon="3.39171">
        <ele>18.26</ele>
        <time>2024-05-13T12:20:49.184Z</time>
      </trkpt>
      <trkpt lat="50.41519" lon="3.39196">
        <ele>18.4</ele>
        <time>2024-05-13T12:20:50.668Z</time>
      </trkpt>
      <trkpt lat="50.41512" lon="3.39224">
        <ele>18.39</ele>
        <time>2024-05-13T12:20:52.155Z</time>
      </trkpt>
      <trkpt lat="50.41509" lon="3.39242">
        <ele>18.52</ele>
        <time>2024-05-13T12:20:53.644Z</time>
      </trkpt>
      <trkpt lat="50.41502" lon="3.39303">
        <ele>18.71</ele>
        <time>2024-05-13T12:20:55.139Z</time>
      </trkpt>
      <trkpt lat="50.41453" lon="3.39722">
        <ele>18.48</ele>
        <time>2024-05-13T12:20:56.678Z</time>
      </trkpt>
      <trkpt lat="50.4144" lon="3.39838">
        <ele>18.59</ele>
        <time>2024-05-13T12:20:58.229Z</time>
      </trkpt>
      <trkpt lat="50.41439" lon="3.39888">
        <ele>18.1</ele>
        <time>2024-05-13T12:20:59.785Z</time>
      </trkpt>
      <trkpt lat="50.41453" lon="3.3994">
        <ele>17.78</ele>
        <time>2024-05-13T12:21:01.347Z</time>
      </trkpt>
      <trkpt lat="50.41484" lon="3.40047">
        <ele>17.5</ele>
        <time>2024-05-13T12:21:02.921Z</time>
      </trkpt>
      <trkpt lat="50.41495" lon="3.40102">
        <ele>17.43</ele>
        <time>2024-05-13T12:21:04.501Z</time>
      </trkpt>
      <trkpt lat="50.41499" lon="3.40139">
        <ele>17.6</ele>
        <time>2024-05-13T12:21:06.085Z</time>
      </trkpt>
      <trkpt lat="50.4151" lon="3.40189">
        <ele>17.76</ele>
        <time>2024-05-13T12:21:07.674Z</time>
      </trkpt>
      <trkpt lat="50.41521" lon="3.40213">
        <ele>17.82</ele>
        <time>2024-05-13T12:21:09.266Z</time>
      </trkpt>
      <trkpt lat="50.4161" lon="3.40362">
        <ele>17.79</ele>
        <time>2024-05-13T12:21:10.879Z</time>
      </trkpt>
      <trkpt lat="50.41643" lon="3.40417">
        <ele>18.14</ele>
        <time>2024-05-13T12:21:12.500Z</time>
      </trkpt>
      <trkpt lat="50.41658" lon="3.40439">
        <ele>18.47</ele>
        <time>2024-05-13T12:21:14.124Z</time>
      </trkpt>
      <trkpt lat="50.41667" lon="3.40449">
        <ele>18.68</ele>
        <time>2024-05-13T12:21:15.750Z</time>
      </trkpt>
      <trkpt lat="50.41676" lon="3.40454">
        <ele>18.87</ele>
        <time>2024-05-13T12:21:17.377Z</time>
      </trkpt>
      <trkpt lat="50.41706" lon="3.40471">
        <ele>19.05</ele>
        <time>2024-05-13T12:21:19.009Z</time>
      </trkpt>
      <trkpt lat="50.41733" lon="3.40486">
        <ele>19.23</ele>
        <time>2024-05-13T12:21:20.646Z</time>
      </trkpt>
      <trkpt lat="50.41778" lon="3.40505">
        <ele>19.52</ele>
        <time>2024-05-13T12:21:22.290Z</time>
      </trkpt>
      <trkpt lat="50.41793" lon="3.40515">
        <ele>19.6</ele>
        <time>2024-05-13T12:21:23.937Z</time>
      </trkpt>
      <trkpt lat="50.41826" lon="3.40529">
        <ele>19.43</ele>
        <time>2024-05-13T12:21:25.589Z</time>
      </trkpt>
      <trkpt lat="50.41822" lon="3.40543">
        <ele>19.18</ele>
        <time>2024-05-13T12:21:27.243Z</time>
      </trkpt>
      <trkpt lat="50.41795" lon="3.40633">
        <ele>19.18</ele>
        <time>2024-05-13T12:21:28.907Z</time>
      </trkpt>
      <trkpt lat="50.41786" lon="3.40658">
        <ele>19.01</ele>
        <time>2024-05-13T12:21:30.574Z</time>
      </trkpt>
      <trkpt lat="50.41783" lon="3.40666">
        <ele>18.96</ele>
        <time>2024-05-13T12:21:32.242Z</time>
      </trkpt>
      <trkpt lat="50.41779" lon="3.40679">
        <ele>18.96</ele>
        <time>2024-05-13T12:21:33.911Z</time>
      </trkpt>
      <trkpt lat="50.4177" lon="3.40698">
        <ele>18.99</ele>
        <time>2024-05-13T12:21:35.583Z</time>
      </trkpt>
      <trkpt lat="50.41765" lon="3.40715">
        <ele>19.25</ele>
        <time>2024-05-13T12:21:37.257Z</time>
      </trkpt>
      <trkpt lat="50.41762" lon="3.40741">
        <ele>19.64</ele>
        <time>2024-05-13T12:21:38.934Z</time>
      </trkpt>
      <trkpt lat="50.41883" lon="3.40727">
        <ele>19.8</ele>
        <time>2024-05-13T12:21:40.630Z</time>
      </trkpt>
      <trkpt lat="50.42035" lon="3.40707">
        <ele>19.13</ele>
        <time>2024-05-13T12:21:42.350Z</time>
      </trkpt>
      <trkpt lat="50.42082" lon="3.40698">
        <ele>18.48</ele>
        <time>2024-05-13T12:21:44.078Z</time>
      </trkpt>
      <trkpt lat="50.42141" lon="3.40683">
        <ele>18.07</ele>
        <time>2024-05-13T12:21:45.816Z</time>
      </trkpt>
      <trkpt lat="50.42171" lon="3.40674">
        <ele>17.36</ele>
        <time>2024-05-13T12:21:47.558Z</time>
      </trkpt>
      <trkpt lat="50.42184" lon="3.40665">
        <ele>15.27</ele>
        <time>2024-05-13T12:21:49.303Z</time>
      </trkpt>
      <trkpt lat="50.42245" lon="3.40626">
        <ele>14.7</ele>
        <time>2024-05-13T12:21:51.058Z</time>
      </trkpt>
      <trkpt lat="50.42282" lon="3.40608">
        <ele>14.08</ele>
        <time>2024-05-13T12:21:52.819Z</time>
      </trkpt>
      <trkpt lat="50.42304" lon="3.40591">
        <ele>14.06</ele>
        <time>2024-05-13T12:21:54.584Z</time>
      </trkpt>
      <trkpt lat="50.42315" lon="3.40582">
        <ele>14.26</ele>
        <time>2024-05-13T12:21:56.351Z</time>
      </trkpt>
      <trkpt lat="50.42353" lon="3.40565">
        <ele>14.54</ele>
        <time>2024-05-13T12:21:58.125Z</time>
      </trkpt>
      <trkpt lat="50.42401" lon="3.40551">
        <ele>14.7</ele>
        <time>2024-05-13T12:21:59.907Z</time>
      </trkpt>
      <trkpt lat="50.42444" lon="3.40541">
        <ele>15.06</ele>
        <time>2024-05-13T12:22:01.696Z</time>
      </trkpt>
      <trkpt lat="50.42477" lon="3.4054">
        <ele>15.41</ele>
        <time>2024-05-13T12:22:03.490Z</time>
      </trkpt>
      <trkpt lat="50.42498" lon="3.40542">
        <ele>15.54</ele>
        <time>2024-05-13T12:22:05.287Z</time>
      </trkpt>
      <trkpt lat="50.42518" lon="3.40548">
        <ele>15.65</ele>
        <time>2024-05-13T12:22:07.087Z</time>
      </trkpt>
      <trkpt lat="50.42535" lon="3.40555">
        <ele>15.81</ele>
        <time>2024-05-13T12:22:08.890Z</time>
      </trkpt>
      <trkpt lat="50.42548" lon="3.40561">
        <ele>16</ele>
        <time>2024-05-13T12:22:10.695Z</time>
      </trkpt>
      <trkpt lat="50.42569" lon="3.40578">
        <ele>16.28</ele>
        <time>2024-05-13T12:22:12.504Z</time>
      </trkpt>
      <trkpt lat="50.42598" lon="3.40607">
        <ele>16.55</ele>
        <time>2024-05-13T12:22:14.319Z</time>
      </trkpt>
      <trkpt lat="50.42627" lon="3.40647">
        <ele>16.98</ele>
        <time>2024-05-13T12:22:16.140Z</time>
      </trkpt>
      <trkpt lat="50.42646" lon="3.40675">
        <ele>17.24</ele>
        <time>2024-05-13T12:22:17.965Z</time>
      </trkpt>
      <trkpt lat="50.42682" lon="3.4073">
        <ele>17.07</ele>
        <time>2024-05-13T12:22:19.798Z</time>
      </trkpt>
      <trkpt lat="50.42701" lon="3.4077">
        <ele>16.96</ele>
        <time>2024-05-13T12:22:21.636Z</time>
      </trkpt>
      <trkpt lat="50.42728" lon="3.40844">
        <ele>16.77</ele>
        <time>2024-05-13T12:22:23.483Z</time>
      </trkpt>
      <trkpt lat="50.42776" lon="3.40961">
        <ele>16.81</ele>
        <time>2024-05-13T12:22:25.344Z</time>
      </trkpt>
      <trkpt lat="50.42795" lon="3.41004">
        <ele>16.68</ele>
        <time>2024-05-13T12:22:27.211Z</time>
      </trkpt>
      <trkpt lat="50.42807" lon="3.41028">
        <ele>16.69</ele>
        <time>2024-05-13T12:22:29.081Z</time>
      </trkpt>
      <trkpt lat="50.42818" lon="3.41063">
        <ele>16.89</ele>
        <time>2024-05-13T12:22:30.955Z</time>
      </trkpt>
      <trkpt lat="50.42831" lon="3.411">
        <ele>17.23</ele>
        <time>2024-05-13T12:22:32.833Z</time>
      </trkpt>
      <trkpt lat="50.42837" lon="3.4113">
        <ele>17.62</ele>
        <time>2024-05-13T12:22:34.714Z</time>
      </trkpt>
      <trkpt lat="50.42843" lon="3.41174">
        <ele>18.34</ele>
        <time>2024-05-13T12:22:36.600Z</time>
      </trkpt>
      <trkpt lat="50.42863" lon="3.41279">
        <ele>19.16</ele>
        <time>2024-05-13T12:22:38.497Z</time>
      </trkpt>
      <trkpt lat="50.42863" lon="3.4128">
        <ele>20.11</ele>
        <time>2024-05-13T12:22:40.394Z</time>
      </trkpt>
      <trkpt lat="50.42873" lon="3.41335">
        <ele>19.37</ele>
        <time>2024-05-13T12:22:42.297Z</time>
      </trkpt>
      <trkpt lat="50.42882" lon="3.41393">
        <ele>18.98</ele>
        <time>2024-05-13T12:22:44.206Z</time>
      </trkpt>
      <trkpt lat="50.42898" lon="3.41535">
        <ele>18.91</ele>
        <time>2024-05-13T12:22:46.130Z</time>
      </trkpt>
      <trkpt lat="50.42908" lon="3.41618">
        <ele>18.73</ele>
        <time>2024-05-13T12:22:48.062Z</time>
      </trkpt>
      <trkpt lat="50.42929" lon="3.41732">
        <ele>18.47</ele>
        <time>2024-05-13T12:22:50.007Z</time>
      </trkpt>
      <trkpt lat="50.42943" lon="3.41794">
        <ele>17.6</ele>
        <time>2024-05-13T12:22:51.958Z</time>
      </trkpt>
      <trkpt lat="50.43001" lon="3.42098">
        <ele>16.76</ele>
        <time>2024-05-13T12:22:53.942Z</time>
      </trkpt>
      <trkpt lat="50.4305" lon="3.42339">
        <ele>15.95</ele>
        <time>2024-05-13T12:22:55.952Z</time>
      </trkpt>
      <trkpt lat="50.43089" lon="3.42547">
        <ele>16.24</ele>
        <time>2024-05-13T12:22:57.984Z</time>
      </trkpt>
      <trkpt lat="50.43122" lon="3.4271">
        <ele>16.43</ele>
        <time>2024-05-13T12:23:00.033Z</time>
      </trkpt>
      <trkpt lat="50.43136" lon="3.42773">
        <ele>16.97</ele>
        <time>2024-05-13T12:23:02.089Z</time>
      </trkpt>
      <trkpt lat="50.4313" lon="3.42794">
        <ele>17.08</ele>
        <time>2024-05-13T12:23:04.148Z</time>
      </trkpt>
      <trkpt lat="50.43063" lon="3.42979">
        <ele>16.52</ele>
        <time>2024-05-13T12:23:06.228Z</time>
      </trkpt>
      <trkpt lat="50.4305" lon="3.43023">
        <ele>15.99</ele>
        <time>2024-05-13T12:23:08.313Z</time>
      </trkpt>
      <trkpt lat="50.43047" lon="3.43041">
        <ele>15.8</ele>
        <time>2024-05-13T12:23:10.400Z</time>
      </trkpt>
      <trkpt lat="50.43041" lon="3.43153">
        <ele>16.15</ele>
        <time>2024-05-13T12:23:12.499Z</time>
      </trkpt>
      <trkpt lat="50.43032" lon="3.43415">
        <ele>16.52</ele>
        <time>2024-05-13T12:23:14.625Z</time>
      </trkpt>
      <trkpt lat="50.43026" lon="3.43553">
        <ele>17.14</ele>
        <time>2024-05-13T12:23:16.765Z</time>
      </trkpt>
      <trkpt lat="50.43023" lon="3.43607">
        <ele>17.4</ele>
        <time>2024-05-13T12:23:18.910Z</time>
      </trkpt>
      <trkpt lat="50.43023" lon="3.43641">
        <ele>17.58</ele>
        <time>2024-05-13T12:23:21.059Z</time>
      </trkpt>
      <trkpt lat="50.43033" lon="3.43685">
        <ele>17.77</ele>
        <time>2024-05-13T12:23:23.212Z</time>
      </trkpt>
      <trkpt lat="50.4304" lon="3.43726">
        <ele>17.69</ele>
        <time>2024-05-13T12:23:25.370Z</time>
      </trkpt>
      <trkpt lat="50.43046" lon="3.43828">
        <ele>17.59</ele>
        <time>2024-05-13T12:23:27.538Z</time>
      </trkpt>
      <trkpt lat="50.43004" lon="3.43875">
        <ele>17.38</ele>
        <time>2024-05-13T12:23:29.715Z</time>
      </trkpt>
      <trkpt lat="50.42968" lon="3.43914">
        <ele>17.45</ele>
        <time>2024-05-13T12:23:31.899Z</time>
      </trkpt>
      <trkpt lat="50.42944" lon="3.4394">
        <ele>17.73</ele>
        <time>2024-05-13T12:23:34.087Z</time>
      </trkpt>
      <trkpt lat="50.4293" lon="3.43957">
        <ele>17.86</ele>
        <time>2024-05-13T12:23:36.278Z</time>
      </trkpt>
      <trkpt lat="50.42928" lon="3.43962">
        <ele>18.03</ele>
        <time>2024-05-13T12:23:38.470Z</time>
      </trkpt>
      <trkpt lat="50.42928" lon="3.43961">
        <ele>18.4</ele>
        <time>2024-05-13T12:23:40.662Z</time>
      </trkpt>
      <trkpt lat="50.42924" lon="3.43969">
        <ele>18.58</ele>
        <time>2024-05-13T12:23:42.855Z</time>
      </trkpt>
      <trkpt lat="50.42923" lon="3.43982">
        <ele>18.68</ele>
        <time>2024-05-13T12:23:45.049Z</time>
      </trkpt>
      <trkpt lat="50.42921" lon="3.43999">
        <ele>18.75</ele>
        <time>2024-05-13T12:23:47.245Z</time>
      </trkpt>
      <trkpt lat="50.42919" lon="3.43997">
        <ele>18.8</ele>
        <time>2024-05-13T12:23:49.441Z</time>
      </trkpt>
      <trkpt lat="50.42914" lon="3.43995">
        <ele>18.85</ele>
        <time>2024-05-13T12:23:51.638Z</time>
      </trkpt>
      <trkpt lat="50.42905" lon="3.43994">
        <ele>18.86</ele>
        <time>2024-05-13T12:23:53.837Z</time>
      </trkpt>
      <trkpt lat="50.429" lon="3.43997">
        <ele>18.86</ele>
        <time>2024-05-13T12:23:56.036Z</time>
      </trkpt>
      <trkpt lat="50.42896" lon="3.44002">
        <ele>18.85</ele>
        <time>2024-05-13T12:23:58.236Z</time>
      </trkpt>
      <trkpt lat="50.4289" lon="3.44016">
        <ele>18.84</ele>
        <time>2024-05-13T12:24:00.438Z</time>
      </trkpt>
      <trkpt lat="50.42888" lon="3.44026">
        <ele>18.84</ele>
        <time>2024-05-13T12:24:02.641Z</time>
      </trkpt>
      <trkpt lat="50.42889" lon="3.44037">
        <ele>18.84</ele>
        <time>2024-05-13T12:24:04.845Z</time>
      </trkpt>
      <trkpt lat="50.42893" lon="3.44047">
        <ele>18.85</ele>
        <time>2024-05-13T12:24:07.050Z</time>
      </trkpt>
      <trkpt lat="50.42902" lon="3.44058">
        <ele>18.88</ele>
        <time>2024-05-13T12:24:09.257Z</time>
      </trkpt>
      <trkpt lat="50.42908" lon="3.44068">
        <ele>18.94</ele>
        <time>2024-05-13T12:24:11.466Z</time>
      </trkpt>
      <trkpt lat="50.42915" lon="3.44099">
        <ele>19.03</ele>
        <time>2024-05-13T12:24:13.678Z</time>
      </trkpt>
      <trkpt lat="50.42918" lon="3.44135">
        <ele>19.23</ele>
        <time>2024-05-13T12:24:15.894Z</time>
      </trkpt>
      <trkpt lat="50.42918" lon="3.44178">
        <ele>19.41</ele>
        <time>2024-05-13T12:24:18.114Z</time>
      </trkpt>
      <trkpt lat="50.42908" lon="3.44331">
        <ele>19.57</ele>
        <time>2024-05-13T12:24:20.350Z</time>
      </trkpt>
      <trkpt lat="50.42906" lon="3.44383">
        <ele>19.92</ele>
        <time>2024-05-13T12:24:22.591Z</time>
      </trkpt>
      <trkpt lat="50.42912" lon="3.44401">
        <ele>20.32</ele>
        <time>2024-05-13T12:24:24.834Z</time>
      </trkpt>
      <trkpt lat="50.42991" lon="3.44482">
        <ele>20.62</ele>
        <time>2024-05-13T12:24:27.092Z</time>
      </trkpt>
      <trkpt lat="50.43056" lon="3.44549">
        <ele>20.77</ele>
        <time>2024-05-13T12:24:29.363Z</time>
      </trkpt>
      <trkpt lat="50.43183" lon="3.44673">
        <ele>21.32</ele>
        <time>2024-05-13T12:24:31.658Z</time>
      </trkpt>
      <trkpt lat="50.43303" lon="3.44792">
        <ele>22</ele>
        <time>2024-05-13T12:24:33.976Z</time>
      </trkpt>
      <trkpt lat="50.43392" lon="3.44877">
        <ele>22.69</ele>
        <time>2024-05-13T12:24:36.310Z</time>
      </trkpt>
      <trkpt lat="50.43507" lon="3.44993">
        <ele>24.36</ele>
        <time>2024-05-13T12:24:38.666Z</time>
      </trkpt>
      <trkpt lat="50.43713" lon="3.45199">
        <ele>26.12</ele>
        <time>2024-05-13T12:24:41.061Z</time>
      </trkpt>
      <trkpt lat="50.43844" lon="3.4533">
        <ele>25.99</ele>
        <time>2024-05-13T12:24:43.481Z</time>
      </trkpt>
      <trkpt lat="50.43887" lon="3.45369">
        <ele>25.48</ele>
        <time>2024-05-13T12:24:45.909Z</time>
      </trkpt>
      <trkpt lat="50.43919" lon="3.45404">
        <ele>21.89</ele>
        <time>2024-05-13T12:24:48.343Z</time>
      </trkpt>
      <trkpt lat="50.43996" lon="3.45483">
        <ele>20.9</ele>
        <time>2024-05-13T12:24:50.792Z</time>
      </trkpt>
      <trkpt lat="50.44032" lon="3.45518">
        <ele>20.01</ele>
        <time>2024-05-13T12:24:53.248Z</time>
      </trkpt>
      <trkpt lat="50.4404" lon="3.45529">
        <ele>19.56</ele>
        <time>2024-05-13T12:24:55.706Z</time>
      </trkpt>
      <trkpt lat="50.44047" lon="3.45537">
        <ele>19.26</ele>
        <time>2024-05-13T12:24:58.165Z</time>
      </trkpt>
      <trkpt lat="50.44058" lon="3.45541">
        <ele>19.03</ele>
        <time>2024-05-13T12:25:00.626Z</time>
      </trkpt>
      <trkpt lat="50.44064" lon="3.45542">
        <ele>18.88</ele>
        <time>2024-05-13T12:25:03.088Z</time>
      </trkpt>
      <trkpt lat="50.44066" lon="3.45544">
        <ele>18.76</ele>
        <time>2024-05-13T12:25:05.550Z</time>
      </trkpt>
      <trkpt lat="50.44068" lon="3.45546">
        <ele>18.65</ele>
        <time>2024-05-13T12:25:08.013Z</time>
      </trkpt>
      <trkpt lat="50.44078" lon="3.45565">
        <ele>18.53</ele>
        <time>2024-05-13T12:25:10.478Z</time>
      </trkpt>
      <trkpt lat="50.44085" lon="3.45575">
        <ele>18.38</ele>
        <time>2024-05-13T12:25:12.945Z</time>
      </trkpt>
      <trkpt lat="50.44091" lon="3.4558">
        <ele>18.25</ele>
        <time>2024-05-13T12:25:15.413Z</time>
      </trkpt>
      <trkpt lat="50.44163" lon="3.45647">
        <ele>17.89</ele>
        <time>2024-05-13T12:25:17.894Z</time>
      </trkpt>
      <trkpt lat="50.4423" lon="3.45714">
        <ele>17.51</ele>
        <time>2024-05-13T12:25:20.388Z</time>
      </trkpt>
      <trkpt lat="50.4428" lon="3.45764">
        <ele>17.46</ele>
        <time>2024-05-13T12:25:22.891Z</time>
      </trkpt>
      <trkpt lat="50.4435" lon="3.45836">
        <ele>17.54</ele>
        <time>2024-05-13T12:25:25.408Z</time>
      </trkpt>
      <trkpt lat="50.4451" lon="3.45994">
        <ele>17.87</ele>
        <time>2024-05-13T12:25:27.955Z</time>
      </trkpt>
      <trkpt lat="50.44558" lon="3.46041">
        <ele>18.13</ele>
        <time>2024-05-13T12:25:30.511Z</time>
      </trkpt>
      <trkpt lat="50.44577" lon="3.46059">
        <ele>18.47</ele>
        <time>2024-05-13T12:25:33.071Z</time>
      </trkpt>
      <trkpt lat="50.44578" lon="3.46065">
        <ele>18.69</ele>
        <time>2024-05-13T12:25:35.631Z</time>
      </trkpt>
      <trkpt lat="50.44579" lon="3.46074">
        <ele>18.87</ele>
        <time>2024-05-13T12:25:38.192Z</time>
      </trkpt>
      <trkpt lat="50.44578" lon="3.46089">
        <ele>18.97</ele>
        <time>2024-05-13T12:25:40.755Z</time>
      </trkpt>
      <trkpt lat="50.44564" lon="3.46114">
        <ele>19</ele>
        <time>2024-05-13T12:25:43.321Z</time>
      </trkpt>
      <trkpt lat="50.44549" lon="3.46142">
        <ele>19.04</ele>
        <time>2024-05-13T12:25:45.891Z</time>
      </trkpt>
      <trkpt lat="50.44519" lon="3.46194">
        <ele>19.06</ele>
        <time>2024-05-13T12:25:48.468Z</time>
      </trkpt>
      <trkpt lat="50.44486" lon="3.46239">
        <ele>19.04</ele>
        <time>2024-05-13T12:25:51.052Z</time>
      </trkpt>
      <trkpt lat="50.44455" lon="3.46275">
        <ele>18.95</ele>
        <time>2024-05-13T12:25:53.642Z</time>
      </trkpt>
      <trkpt lat="50.44433" lon="3.46308">
        <ele>18.89</ele>
        <time>2024-05-13T12:25:56.237Z</time>
      </trkpt>
      <trkpt lat="50.4442" lon="3.46326">
        <ele>18.86</ele>
        <time>2024-05-13T12:25:58.835Z</time>
      </trkpt>
      <trkpt lat="50.44387" lon="3.46386">
        <ele>18.9</ele>
        <time>2024-05-13T12:26:01.441Z</time>
      </trkpt>
      <trkpt lat="50.44371" lon="3.46414">
        <ele>18.7</ele>
        <time>2024-05-13T12:26:04.051Z</time>
      </trkpt>
      <trkpt lat="50.44376" lon="3.46422">
        <ele>18.61</ele>
        <time>2024-05-13T12:26:06.662Z</time>
      </trkpt>
      <trkpt lat="50.44361" lon="3.4644">
        <ele>18.43</ele>
        <time>2024-05-13T12:26:09.276Z</time>
      </trkpt>
      <trkpt lat="50.4434" lon="3.46474">
        <ele>18.23</ele>
        <time>2024-05-13T12:26:11.895Z</time>
      </trkpt>
      <trkpt lat="50.44329" lon="3.46497">
        <ele>18.17</ele>
        <time>2024-05-13T12:26:14.517Z</time>
      </trkpt>
      <trkpt lat="50.44328" lon="3.46506">
        <ele>18.13</ele>
        <time>2024-05-13T12:26:17.140Z</time>
      </trkpt>
      <trkpt lat="50.44315" lon="3.46533">
        <ele>18.17</ele>
        <time>2024-05-13T12:26:19.766Z</time>
      </trkpt>
      <trkpt lat="50.44302" lon="3.46555">
        <ele>18.17</ele>
        <time>2024-05-13T12:26:22.395Z</time>
      </trkpt>
      <trkpt lat="50.44239" lon="3.46646">
        <ele>18.28</ele>
        <time>2024-05-13T12:26:25.038Z</time>
      </trkpt>
      <trkpt lat="50.4422" lon="3.4667">
        <ele>18.23</ele>
        <time>2024-05-13T12:26:27.685Z</time>
      </trkpt>
      <trkpt lat="50.44212" lon="3.46683">
        <ele>18.2</ele>
        <time>2024-05-13T12:26:30.334Z</time>
      </trkpt>
      <trkpt lat="50.44206" lon="3.467">
        <ele>18.16</ele>
        <time>2024-05-13T12:26:32.985Z</time>
      </trkpt>
      <trkpt lat="50.44203" lon="3.46718">
        <ele>18.11</ele>
        <time>2024-05-13T12:26:35.638Z</time>
      </trkpt>
      <trkpt lat="50.44203" lon="3.46749">
        <ele>18.06</ele>
        <time>2024-05-13T12:26:38.294Z</time>
      </trkpt>
      <trkpt lat="50.44205" lon="3.46772">
        <ele>18.02</ele>
        <time>2024-05-13T12:26:40.952Z</time>
      </trkpt>
      <trkpt lat="50.44207" lon="3.46784">
        <ele>17.98</ele>
        <time>2024-05-13T12:26:43.612Z</time>
      </trkpt>
      <trkpt lat="50.4422" lon="3.46833">
        <ele>17.88</ele>
        <time>2024-05-13T12:26:46.277Z</time>
      </trkpt>
      <trkpt lat="50.44242" lon="3.46916">
        <ele>17.76</ele>
        <time>2024-05-13T12:26:48.951Z</time>
      </trkpt>
      <trkpt lat="50.44253" lon="3.46967">
        <ele>17.97</ele>
        <time>2024-05-13T12:26:51.631Z</time>
      </trkpt>
      <trkpt lat="50.44273" lon="3.47073">
        <ele>18.37</ele>
        <time>2024-05-13T12:26:54.322Z</time>
      </trkpt>
      <trkpt lat="50.44299" lon="3.472">
        <ele>18.8</ele>
        <time>2024-05-13T12:26:57.027Z</time>
      </trkpt>
      <trkpt lat="50.4432" lon="3.47295">
        <ele>19.01</ele>
        <time>2024-05-13T12:26:59.742Z</time>
      </trkpt>
      <trkpt lat="50.44352" lon="3.47428">
        <ele>19.41</ele>
        <time>2024-05-13T12:27:02.471Z</time>
      </trkpt>
      <trkpt lat="50.44357" lon="3.47446">
        <ele>19.82</ele>
        <time>2024-05-13T12:27:05.202Z</time>
      </trkpt>
      <trkpt lat="50.44356" lon="3.47466">
        <ele>20.3</ele>
        <time>2024-05-13T12:27:07.936Z</time>
      </trkpt>
      <trkpt lat="50.44352" lon="3.47492">
        <ele>20.74</ele>
        <time>2024-05-13T12:27:10.672Z</time>
      </trkpt>
      <trkpt lat="50.44339" lon="3.47549">
        <ele>21.36</ele>
        <time>2024-05-13T12:27:13.414Z</time>
      </trkpt>
      <trkpt lat="50.44322" lon="3.47629">
        <ele>21.59</ele>
        <time>2024-05-13T12:27:16.165Z</time>
      </trkpt>
      <trkpt lat="50.44319" lon="3.47727">
        <ele>22.08</ele>
        <time>2024-05-13T12:27:18.926Z</time>
      </trkpt>
      <trkpt lat="50.44319" lon="3.47786">
        <ele>22.64</ele>
        <time>2024-05-13T12:27:21.693Z</time>
      </trkpt>
      <trkpt lat="50.44315" lon="3.47822">
        <ele>23.08</ele>
        <time>2024-05-13T12:27:24.464Z</time>
      </trkpt>
      <trkpt lat="50.44303" lon="3.47903">
        <ele>23.55</ele>
        <time>2024-05-13T12:27:27.243Z</time>
      </trkpt>
      <trkpt lat="50.44294" lon="3.47951">
        <ele>23.88</ele>
        <time>2024-05-13T12:27:30.027Z</time>
      </trkpt>
      <trkpt lat="50.44289" lon="3.4796">
        <ele>24.14</ele>
        <time>2024-05-13T12:27:32.813Z</time>
      </trkpt>
      <trkpt lat="50.44283" lon="3.47967">
        <ele>24.27</ele>
        <time>2024-05-13T12:27:35.600Z</time>
      </trkpt>
      <trkpt lat="50.44282" lon="3.47967">
        <ele>23.93</ele>
        <time>2024-05-13T12:27:38.387Z</time>
      </trkpt>
      <trkpt lat="50.44263" lon="3.47972">
        <ele>23.89</ele>
        <time>2024-05-13T12:27:41.177Z</time>
      </trkpt>
      <trkpt lat="50.44093" lon="3.47994">
        <ele>23.5</ele>
        <time>2024-05-13T12:27:43.994Z</time>
      </trkpt>
      <trkpt lat="50.43807" lon="3.48032">
        <ele>24.03</ele>
        <time>2024-05-13T12:27:46.857Z</time>
      </trkpt>
      <trkpt lat="50.43771" lon="3.48037">
        <ele>24.94</ele>
        <time>2024-05-13T12:27:49.726Z</time>
      </trkpt>
      <trkpt lat="50.4356" lon="3.48068">
        <ele>25.09</ele>
        <time>2024-05-13T12:27:52.629Z</time>
      </trkpt>
      <trkpt lat="50.43399" lon="3.48091">
        <ele>25.79</ele>
        <time>2024-05-13T12:27:55.558Z</time>
      </trkpt>
      <trkpt lat="50.43327" lon="3.481">
        <ele>25.64</ele>
        <time>2024-05-13T12:27:58.499Z</time>
      </trkpt>
      <trkpt lat="50.43282" lon="3.48104">
        <ele>25.75</ele>
        <time>2024-05-13T12:28:01.447Z</time>
      </trkpt>
      <trkpt lat="50.43273" lon="3.481">
        <ele>25.92</ele>
        <time>2024-05-13T12:28:04.396Z</time>
      </trkpt>
      <trkpt lat="50.43259" lon="3.48084">
        <ele>26.19</ele>
        <time>2024-05-13T12:28:07.348Z</time>
      </trkpt>
      <trkpt lat="50.43248" lon="3.4804">
        <ele>26.44</ele>
        <time>2024-05-13T12:28:10.305Z</time>
      </trkpt>
      <trkpt lat="50.43244" lon="3.47964">
        <ele>26.74</ele>
        <time>2024-05-13T12:28:13.270Z</time>
      </trkpt>
      <trkpt lat="50.43241" lon="3.47908">
        <ele>27.73</ele>
        <time>2024-05-13T12:28:16.241Z</time>
      </trkpt>
      <trkpt lat="50.4323" lon="3.47859">
        <ele>28.7</ele>
        <time>2024-05-13T12:28:19.217Z</time>
      </trkpt>
      <trkpt lat="50.43208" lon="3.4775">
        <ele>29.87</ele>
        <time>2024-05-13T12:28:22.205Z</time>
      </trkpt>
      <trkpt lat="50.43193" lon="3.4765">
        <ele>31.03</ele>
        <time>2024-05-13T12:28:25.203Z</time>
      </trkpt>
      <trkpt lat="50.43177" lon="3.47555">
        <ele>32.81</ele>
        <time>2024-05-13T12:28:28.211Z</time>
      </trkpt>
      <trkpt lat="50.43171" lon="3.47471">
        <ele>33.63</ele>
        <time>2024-05-13T12:28:31.228Z</time>
      </trkpt>
      <trkpt lat="50.43163" lon="3.47331">
        <ele>33.51</ele>
        <time>2024-05-13T12:28:34.259Z</time>
      </trkpt>
      <trkpt lat="50.43158" lon="3.47275">
        <ele>34.22</ele>
        <time>2024-05-13T12:28:37.296Z</time>
      </trkpt>
      <trkpt lat="50.43149" lon="3.47238">
        <ele>34.29</ele>
        <time>2024-05-13T12:28:40.337Z</time>
      </trkpt>
      <trkpt lat="50.43135" lon="3.47203">
        <ele>33.83</ele>
        <time>2024-05-13T12:28:43.382Z</time>
      </trkpt>
      <trkpt lat="50.43125" lon="3.47182">
        <ele>33.09</ele>
        <time>2024-05-13T12:28:46.430Z</time>
      </trkpt>
      <trkpt lat="50.43119" lon="3.47179">
        <ele>31.82</ele>
        <time>2024-05-13T12:28:49.479Z</time>
      </trkpt>
      <trkpt lat="50.42808" lon="3.47081">
        <ele>28.21</ele>
        <time>2024-05-13T12:28:52.579Z</time>
      </trkpt>
      <trkpt lat="50.42492" lon="3.46983">
        <ele>27.79</ele>
        <time>2024-05-13T12:28:55.730Z</time>
      </trkpt>
      <trkpt lat="50.42457" lon="3.46972">
        <ele>28.97</ele>
        <time>2024-05-13T12:28:58.887Z</time>
      </trkpt>
      <trkpt lat="50.42417" lon="3.46958">
        <ele>29.43</ele>
        <time>2024-05-13T12:29:02.051Z</time>
      </trkpt>
      <trkpt lat="50.42401" lon="3.46949">
        <ele>30.17</ele>
        <time>2024-05-13T12:29:05.217Z</time>
      </trkpt>
      <trkpt lat="50.42374" lon="3.4693">
        <ele>31.43</ele>
        <time>2024-05-13T12:29:08.388Z</time>
      </trkpt>
      <trkpt lat="50.42273" lon="3.46838">
        <ele>35</ele>
        <time>2024-05-13T12:29:11.578Z</time>
      </trkpt>
      <trkpt lat="50.42206" lon="3.46774">
        <ele>35.5</ele>
        <time>2024-05-13T12:29:14.780Z</time>
      </trkpt>
      <trkpt lat="50.42058" lon="3.46638">
        <ele>36.5</ele>
        <time>2024-05-13T12:29:18.010Z</time>
      </trkpt>
      <trkpt lat="50.41987" lon="3.46575">
        <ele>33.54</ele>
        <time>2024-05-13T12:29:21.253Z</time>
      </trkpt>
      <trkpt lat="50.41876" lon="3.46475">
        <ele>28.12</ele>
        <time>2024-05-13T12:29:24.516Z</time>
      </trkpt>
      <trkpt lat="50.41829" lon="3.46434">
        <ele>24.59</ele>
        <time>2024-05-13T12:29:27.788Z</time>
      </trkpt>
      <trkpt lat="50.41787" lon="3.46397">
        <ele>22.75</ele>
        <time>2024-05-13T12:29:31.068Z</time>
      </trkpt>
      <trkpt lat="50.41767" lon="3.46375">
        <ele>22.72</ele>
        <time>2024-05-13T12:29:34.352Z</time>
      </trkpt>
      <trkpt lat="50.41753" lon="3.46358">
        <ele>23.9</ele>
        <time>2024-05-13T12:29:37.639Z</time>
      </trkpt>
      <trkpt lat="50.41709" lon="3.46239">
        <ele>27.01</ele>
        <time>2024-05-13T12:29:40.940Z</time>
      </trkpt>
      <trkpt lat="50.41698" lon="3.46207">
        <ele>27.14</ele>
        <time>2024-05-13T12:29:44.244Z</time>
      </trkpt>
      <trkpt lat="50.41607" lon="3.45941">
        <ele>25.95</ele>
        <time>2024-05-13T12:29:47.579Z</time>
      </trkpt>
      <trkpt lat="50.41486" lon="3.45584">
        <ele>22.04</ele>
        <time>2024-05-13T12:29:50.956Z</time>
      </trkpt>
      <trkpt lat="50.41404" lon="3.45342">
        <ele>19.27</ele>
        <time>2024-05-13T12:29:54.361Z</time>
      </trkpt>
      <trkpt lat="50.41407" lon="3.4528">
        <ele>18.81</ele>
        <time>2024-05-13T12:29:57.772Z</time>
      </trkpt>
      <trkpt lat="50.41372" lon="3.45306">
        <ele>18.26</ele>
        <time>2024-05-13T12:30:01.189Z</time>
      </trkpt>
      <trkpt lat="50.41346" lon="3.45324">
        <ele>17.25</ele>
        <time>2024-05-13T12:30:04.611Z</time>
      </trkpt>
      <trkpt lat="50.40984" lon="3.45574">
        <ele>20.48</ele>
        <time>2024-05-13T12:30:08.096Z</time>
      </trkpt>
      <trkpt lat="50.40778" lon="3.45715">
        <ele>14.56</ele>
        <time>2024-05-13T12:30:11.617Z</time>
      </trkpt>
      <trkpt lat="50.40298" lon="3.46045">
        <ele>22.17</ele>
        <time>2024-05-13T12:30:15.222Z</time>
      </trkpt>
      <trkpt lat="50.40226" lon="3.46098">
        <ele>22.46</ele>
        <time>2024-05-13T12:30:18.840Z</time>
      </trkpt>
      <trkpt lat="50.40196" lon="3.46117">
        <ele>22.84</ele>
        <time>2024-05-13T12:30:22.463Z</time>
      </trkpt>
      <trkpt lat="50.40197" lon="3.46098">
        <ele>22.81</ele>
        <time>2024-05-13T12:30:26.088Z</time>
      </trkpt>
      <trkpt lat="50.40202" lon="3.46071">
        <ele>23.03</ele>
        <time>2024-05-13T12:30:29.716Z</time>
      </trkpt>
      <trkpt lat="50.40235" lon="3.45957">
        <ele>23.61</ele>
        <time>2024-05-13T12:30:33.357Z</time>
      </trkpt>
      <trkpt lat="50.40265" lon="3.45855">
        <ele>23.83</ele>
        <time>2024-05-13T12:30:37.009Z</time>
      </trkpt>
      <trkpt lat="50.40266" lon="3.45847">
        <ele>24.06</ele>
        <time>2024-05-13T12:30:40.662Z</time>
      </trkpt>
      <trkpt lat="50.40266" lon="3.45834">
        <ele>24.25</ele>
        <time>2024-05-13T12:30:44.316Z</time>
      </trkpt>
      <trkpt lat="50.40264" lon="3.45826">
        <ele>24.62</ele>
        <time>2024-05-13T12:30:47.971Z</time>
      </trkpt>
      <trkpt lat="50.40254" lon="3.45818">
        <ele>25.11</ele>
        <time>2024-05-13T12:30:51.628Z</time>
      </trkpt>
      <trkpt lat="50.4023" lon="3.45808">
        <ele>25.87</ele>
        <time>2024-05-13T12:30:55.289Z</time>
      </trkpt>
      <trkpt lat="50.40199" lon="3.45792">
        <ele>26.74</ele>
        <time>2024-05-13T12:30:58.955Z</time>
      </trkpt>
      <trkpt lat="50.40169" lon="3.4577">
        <ele>27.61</ele>
        <time>2024-05-13T12:31:02.627Z</time>
      </trkpt>
      <trkpt lat="50.40105" lon="3.45718">
        <ele>27.83</ele>
        <time>2024-05-13T12:31:06.310Z</time>
      </trkpt>
      <trkpt lat="50.39989" lon="3.45622">
        <ele>27.78</ele>
        <time>2024-05-13T12:31:10.014Z</time>
      </trkpt>
      <trkpt lat="50.39964" lon="3.45588">
        <ele>27.95</ele>
        <time>2024-05-13T12:31:13.723Z</time>
      </trkpt>
      <trkpt lat="50.39956" lon="3.45571">
        <ele>28.08</ele>
        <time>2024-05-13T12:31:17.435Z</time>
      </trkpt>
      <trkpt lat="50.3994" lon="3.45518">
        <ele>28.08</ele>
        <time>2024-05-13T12:31:21.153Z</time>
      </trkpt>
      <trkpt lat="50.39923" lon="3.45433">
        <ele>28.31</ele>
        <time>2024-05-13T12:31:24.880Z</time>
      </trkpt>
      <trkpt lat="50.39912" lon="3.45383">
        <ele>28.49</ele>
        <time>2024-05-13T12:31:28.612Z</time>
      </trkpt>
      <trkpt lat="50.39901" lon="3.45341">
        <ele>28.96</ele>
        <time>2024-05-13T12:31:32.349Z</time>
      </trkpt>
      <trkpt lat="50.3989" lon="3.45312">
        <ele>29.53</ele>
        <time>2024-05-13T12:31:36.089Z</time>
      </trkpt>
      <trkpt lat="50.39874" lon="3.45288">
        <ele>29.89</ele>
        <time>2024-05-13T12:31:39.833Z</time>
      </trkpt>
      <trkpt lat="50.39815" lon="3.45234">
        <ele>30.25</ele>
        <time>2024-05-13T12:31:43.588Z</time>
      </trkpt>
      <trkpt lat="50.39791" lon="3.45209">
        <ele>30.57</ele>
        <time>2024-05-13T12:31:47.347Z</time>
      </trkpt>
      <trkpt lat="50.3977" lon="3.4518">
        <ele>30.72</ele>
        <time>2024-05-13T12:31:51.111Z</time>
      </trkpt>
      <trkpt lat="50.39759" lon="3.45161">
        <ele>30.53</ele>
        <time>2024-05-13T12:31:54.877Z</time>
      </trkpt>
      <trkpt lat="50.39746" lon="3.45132">
        <ele>30.07</ele>
        <time>2024-05-13T12:31:58.647Z</time>
      </trkpt>
      <trkpt lat="50.39727" lon="3.45084">
        <ele>29.45</ele>
        <time>2024-05-13T12:32:02.423Z</time>
      </trkpt>
      <trkpt lat="50.39689" lon="3.44989">
        <ele>29.01</ele>
        <time>2024-05-13T12:32:06.210Z</time>
      </trkpt>
      <trkpt lat="50.39679" lon="3.44966">
        <ele>28.83</ele>
        <time>2024-05-13T12:32:10.000Z</time>
      </trkpt>
      <trkpt lat="50.3964" lon="3.44866">
        <ele>28.66</ele>
        <time>2024-05-13T12:32:13.802Z</time>
      </trkpt>
      <trkpt lat="50.39634" lon="3.44857">
        <ele>28.72</ele>
        <time>2024-05-13T12:32:17.605Z</time>
      </trkpt>
      <trkpt lat="50.39629" lon="3.44856">
        <ele>29.1</ele>
        <time>2024-05-13T12:32:21.409Z</time>
      </trkpt>
      <trkpt lat="50.39624" lon="3.44856">
        <ele>29.97</ele>
        <time>2024-05-13T12:32:25.214Z</time>
      </trkpt>
      <trkpt lat="50.3959" lon="3.44858">
        <ele>32.2</ele>
        <time>2024-05-13T12:32:29.025Z</time>
      </trkpt>
      <trkpt lat="50.39445" lon="3.4487">
        <ele>35.49</ele>
        <time>2024-05-13T12:32:32.859Z</time>
      </trkpt>
      <trkpt lat="50.3959" lon="3.44858">
        <ele>32.2</ele>
        <time>2024-05-13T12:32:36.716Z</time>
      </trkpt>
      <trkpt lat="50.39602" lon="3.44856">
        <ele>30.54</ele>
        <time>2024-05-13T12:32:40.575Z</time>
      </trkpt>
      <trkpt lat="50.39602" lon="3.44848">
        <ele>29.76</ele>
        <time>2024-05-13T12:32:44.435Z</time>
      </trkpt>
      <trkpt lat="50.39604" lon="3.4484">
        <ele>29.4</ele>
        <time>2024-05-13T12:32:48.296Z</time>
      </trkpt>
      <trkpt lat="50.39608" lon="3.44836">
        <ele>29.21</ele>
        <time>2024-05-13T12:32:52.157Z</time>
      </trkpt>
      <trkpt lat="50.39622" lon="3.44827">
        <ele>29.25</ele>
        <time>2024-05-13T12:32:56.021Z</time>
      </trkpt>
      <trkpt lat="50.39624" lon="3.44819">
        <ele>29.26</ele>
        <time>2024-05-13T12:32:59.886Z</time>
      </trkpt>
      <trkpt lat="50.39608" lon="3.44786">
        <ele>29.22</ele>
        <time>2024-05-13T12:33:03.755Z</time>
      </trkpt>
      <trkpt lat="50.39595" lon="3.44757">
        <ele>29.24</ele>
        <time>2024-05-13T12:33:07.628Z</time>
      </trkpt>
      <trkpt lat="50.39578" lon="3.44714">
        <ele>29.17</ele>
        <time>2024-05-13T12:33:11.506Z</time>
      </trkpt>
      <trkpt lat="50.39547" lon="3.44636">
        <ele>28.92</ele>
        <time>2024-05-13T12:33:15.393Z</time>
      </trkpt>
      <trkpt lat="50.3952" lon="3.44574">
        <ele>28.6</ele>
        <time>2024-05-13T12:33:19.288Z</time>
      </trkpt>
      <trkpt lat="50.39504" lon="3.44533">
        <ele>28.04</ele>
        <time>2024-05-13T12:33:23.188Z</time>
      </trkpt>
      <trkpt lat="50.39482" lon="3.44477">
        <ele>27.18</ele>
        <time>2024-05-13T12:33:27.095Z</time>
      </trkpt>
      <trkpt lat="50.39461" lon="3.44422">
        <ele>26.59</ele>
        <time>2024-05-13T12:33:31.008Z</time>
      </trkpt>
      <trkpt lat="50.39403" lon="3.44279">
        <ele>25.82</ele>
        <time>2024-05-13T12:33:34.938Z</time>
      </trkpt>
      <trkpt lat="50.39386" lon="3.44234">
        <ele>25.13</ele>
        <time>2024-05-13T12:33:38.874Z</time>
      </trkpt>
      <trkpt lat="50.39362" lon="3.44175">
        <ele>24.64</ele>
        <time>2024-05-13T12:33:42.817Z</time>
      </trkpt>
      <trkpt lat="50.39333" lon="3.44103">
        <ele>24.47</ele>
        <time>2024-05-13T12:33:46.769Z</time>
      </trkpt>
      <trkpt lat="50.39255" lon="3.43908">
        <ele>24.35</ele>
        <time>2024-05-13T12:33:50.744Z</time>
      </trkpt>
      <trkpt lat="50.3918" lon="3.43713">
        <ele>24.71</ele>
        <time>2024-05-13T12:33:54.743Z</time>
      </trkpt>
      <trkpt lat="50.39131" lon="3.43596">
        <ele>24.7</ele>
        <time>2024-05-13T12:33:58.756Z</time>
      </trkpt>
      <trkpt lat="50.39107" lon="3.43536">
        <ele>25.15</ele>
        <time>2024-05-13T12:34:02.776Z</time>
      </trkpt>
      <trkpt lat="50.39091" lon="3.43506">
        <ele>25.76</ele>
        <time>2024-05-13T12:34:06.800Z</time>
      </trkpt>
      <trkpt lat="50.39084" lon="3.43483">
        <ele>26.44</ele>
        <time>2024-05-13T12:34:10.827Z</time>
      </trkpt>
      <trkpt lat="50.39073" lon="3.43454">
        <ele>27.19</ele>
        <time>2024-05-13T12:34:14.857Z</time>
      </trkpt>
      <trkpt lat="50.39053" lon="3.43407">
        <ele>27.82</ele>
        <time>2024-05-13T12:34:18.893Z</time>
      </trkpt>
      <trkpt lat="50.39029" lon="3.43347">
        <ele>28.71</ele>
        <time>2024-05-13T12:34:22.936Z</time>
      </trkpt>
      <trkpt lat="50.39022" lon="3.43331">
        <ele>29.49</ele>
        <time>2024-05-13T12:34:26.981Z</time>
      </trkpt>
      <trkpt lat="50.39013" lon="3.43323">
        <ele>30.26</ele>
        <time>2024-05-13T12:34:31.028Z</time>
      </trkpt>
      <trkpt lat="50.39002" lon="3.43315">
        <ele>31.02</ele>
        <time>2024-05-13T12:34:35.077Z</time>
      </trkpt>
      <trkpt lat="50.3899" lon="3.43312">
        <ele>31.81</ele>
        <time>2024-05-13T12:34:39.128Z</time>
      </trkpt>
      <trkpt lat="50.38979" lon="3.4331">
        <ele>32.54</ele>
        <time>2024-05-13T12:34:43.180Z</time>
      </trkpt>
      <trkpt lat="50.38956" lon="3.43313">
        <ele>33.23</ele>
        <time>2024-05-13T12:34:47.236Z</time>
      </trkpt>
      <trkpt lat="50.38927" lon="3.43313">
        <ele>33.6</ele>
        <time>2024-05-13T12:34:51.297Z</time>
      </trkpt>
      <trkpt lat="50.38925" lon="3.43304">
        <ele>33.93</ele>
        <time>2024-05-13T12:34:55.359Z</time>
      </trkpt>
      <trkpt lat="50.38918" lon="3.43257">
        <ele>34.19</ele>
        <time>2024-05-13T12:34:59.426Z</time>
      </trkpt>
      <trkpt lat="50.38915" lon="3.43231">
        <ele>34.42</ele>
        <time>2024-05-13T12:35:03.495Z</time>
      </trkpt>
      <trkpt lat="50.38897" lon="3.43078">
        <ele>34.61</ele>
        <time>2024-05-13T12:35:07.580Z</time>
      </trkpt>
      <trkpt lat="50.38841" lon="3.42561">
        <ele>34.88</ele>
        <time>2024-05-13T12:35:11.719Z</time>
      </trkpt>
      <trkpt lat="50.38837" lon="3.42517">
        <ele>35.34</ele>
        <time>2024-05-13T12:35:15.863Z</time>
      </trkpt>
      <trkpt lat="50.38838" lon="3.42483">
        <ele>35.71</ele>
        <time>2024-05-13T12:35:20.010Z</time>
      </trkpt>
      <trkpt lat="50.38837" lon="3.42426">
        <ele>36.01</ele>
        <time>2024-05-13T12:35:24.163Z</time>
      </trkpt>
      <trkpt lat="50.38834" lon="3.42411">
        <ele>36.08</ele>
        <time>2024-05-13T12:35:28.318Z</time>
      </trkpt>
      <trkpt lat="50.38828" lon="3.42403">
        <ele>36.03</ele>
        <time>2024-05-13T12:35:32.474Z</time>
      </trkpt>
      <trkpt lat="50.38822" lon="3.42402">
        <ele>35.9</ele>
        <time>2024-05-13T12:35:36.631Z</time>
      </trkpt>
      <trkpt lat="50.38813" lon="3.42411">
        <ele>34.88</ele>
        <time>2024-05-13T12:35:40.790Z</time>
      </trkpt>
      <trkpt lat="50.38627" lon="3.426">
        <ele>35.99</ele>
        <time>2024-05-13T12:35:44.984Z</time>
      </trkpt>
      <trkpt lat="50.38474" lon="3.42758">
        <ele>36.82</ele>
        <time>2024-05-13T12:35:49.207Z</time>
      </trkpt>
      <trkpt lat="50.3833" lon="3.42909">
        <ele>42</ele>
        <time>2024-05-13T12:35:53.458Z</time>
      </trkpt>
      <trkpt lat="50.3818" lon="3.43065">
        <ele>41.18</ele>
        <time>2024-05-13T12:35:57.738Z</time>
      </trkpt>
      <trkpt lat="50.38168" lon="3.43077">
        <ele>41</ele>
        <time>2024-05-13T12:36:02.020Z</time>
      </trkpt>
      <trkpt lat="50.38161" lon="3.43081">
        <ele>40.89</ele>
        <time>2024-05-13T12:36:06.303Z</time>
      </trkpt>
      <trkpt lat="50.38152" lon="3.43083">
        <ele>40.59</ele>
        <time>2024-05-13T12:36:10.588Z</time>
      </trkpt>
      <trkpt lat="50.38058" lon="3.43089">
        <ele>39.27</ele>
        <time>2024-05-13T12:36:14.888Z</time>
      </trkpt>
      <trkpt lat="50.37975" lon="3.43095">
        <ele>39.48</ele>
        <time>2024-05-13T12:36:19.201Z</time>
      </trkpt>
      <trkpt lat="50.37923" lon="3.43096">
        <ele>38</ele>
        <time>2024-05-13T12:36:23.523Z</time>
      </trkpt>
      <trkpt lat="50.37912" lon="3.43097">
        <ele>37.85</ele>
        <time>2024-05-13T12:36:27.846Z</time>
      </trkpt>
      <trkpt lat="50.37916" lon="3.43065">
        <ele>37.6</ele>
        <time>2024-05-13T12:36:32.173Z</time>
      </trkpt>
      <trkpt lat="50.37914" lon="3.43002">
        <ele>37.43</ele>
        <time>2024-05-13T12:36:36.506Z</time>
      </trkpt>
      <trkpt lat="50.37906" lon="3.4294">
        <ele>37.32</ele>
        <time>2024-05-13T12:36:40.846Z</time>
      </trkpt>
      <trkpt lat="50.37889" lon="3.4285">
        <ele>37.17</ele>
        <time>2024-05-13T12:36:45.195Z</time>
      </trkpt>
      <trkpt lat="50.37875" lon="3.4279">
        <ele>36.67</ele>
        <time>2024-05-13T12:36:49.551Z</time>
      </trkpt>
      <trkpt lat="50.37827" lon="3.42626">
        <ele>36.32</ele>
        <time>2024-05-13T12:36:53.925Z</time>
      </trkpt>
      <trkpt lat="50.37823" lon="3.42615">
        <ele>35.93</ele>
        <time>2024-05-13T12:36:58.301Z</time>
      </trkpt>
      <trkpt lat="50.37814" lon="3.42561">
        <ele>35.38</ele>
        <time>2024-05-13T12:37:02.682Z</time>
      </trkpt>
      <trkpt lat="50.37788" lon="3.42362">
        <ele>34.93</ele>
        <time>2024-05-13T12:37:07.084Z</time>
      </trkpt>
      <trkpt lat="50.37767" lon="3.42203">
        <ele>34.02</ele>
        <time>2024-05-13T12:37:11.503Z</time>
      </trkpt>
      <trkpt lat="50.37755" lon="3.42127">
        <ele>33.09</ele>
        <time>2024-05-13T12:37:15.930Z</time>
      </trkpt>
      <trkpt lat="50.37749" lon="3.42068">
        <ele>32.32</ele>
        <time>2024-05-13T12:37:20.363Z</time>
      </trkpt>
      <trkpt lat="50.37754" lon="3.42034">
        <ele>31.58</ele>
        <time>2024-05-13T12:37:24.799Z</time>
      </trkpt>
      <trkpt lat="50.37774" lon="3.41957">
        <ele>30.55</ele>
        <time>2024-05-13T12:37:29.244Z</time>
      </trkpt>
      <trkpt lat="50.37779" lon="3.41914">
        <ele>30.04</ele>
        <time>2024-05-13T12:37:33.693Z</time>
      </trkpt>
      <trkpt lat="50.37777" lon="3.41848">
        <ele>29.24</ele>
        <time>2024-05-13T12:37:38.149Z</time>
      </trkpt>
      <trkpt lat="50.3777" lon="3.41763">
        <ele>28.11</ele>
        <time>2024-05-13T12:37:42.614Z</time>
      </trkpt>
      <trkpt lat="50.37753" lon="3.41672">
        <ele>27.3</ele>
        <time>2024-05-13T12:37:47.089Z</time>
      </trkpt>
      <trkpt lat="50.37722" lon="3.41481">
        <ele>27</ele>
        <time>2024-05-13T12:37:51.584Z</time>
      </trkpt>
      <trkpt lat="50.37695" lon="3.4133">
        <ele>26.32</ele>
        <time>2024-05-13T12:37:56.095Z</time>
      </trkpt>
      <trkpt lat="50.37693" lon="3.41311">
        <ele>25.93</ele>
        <time>2024-05-13T12:38:00.608Z</time>
      </trkpt>
      <trkpt lat="50.37696" lon="3.4127">
        <ele>25.56</ele>
        <time>2024-05-13T12:38:05.125Z</time>
      </trkpt>
      <trkpt lat="50.37742" lon="3.41159">
        <ele>25.09</ele>
        <time>2024-05-13T12:38:09.656Z</time>
      </trkpt>
      <trkpt lat="50.37754" lon="3.41135">
        <ele>24.87</ele>
        <time>2024-05-13T12:38:14.190Z</time>
      </trkpt>
      <trkpt lat="50.37757" lon="3.41139">
        <ele>24.41</ele>
        <time>2024-05-13T12:38:18.724Z</time>
      </trkpt>
      <trkpt lat="50.37777" lon="3.41103">
        <ele>24.28</ele>
        <time>2024-05-13T12:38:23.263Z</time>
      </trkpt>
      <trkpt lat="50.3782" lon="3.41041">
        <ele>24.05</ele>
        <time>2024-05-13T12:38:27.812Z</time>
      </trkpt>
      <trkpt lat="50.37836" lon="3.41032">
        <ele>23.82</ele>
        <time>2024-05-13T12:38:32.363Z</time>
      </trkpt>
      <trkpt lat="50.37849" lon="3.41033">
        <ele>23.65</ele>
        <time>2024-05-13T12:38:36.917Z</time>
      </trkpt>
      <trkpt lat="50.37901" lon="3.41073">
        <ele>23.51</ele>
        <time>2024-05-13T12:38:41.480Z</time>
      </trkpt>
      <trkpt lat="50.37908" lon="3.41076">
        <ele>23.56</ele>
        <time>2024-05-13T12:38:46.044Z</time>
      </trkpt>
      <trkpt lat="50.37915" lon="3.41075">
        <ele>23.7</ele>
        <time>2024-05-13T12:38:50.609Z</time>
      </trkpt>
      <trkpt lat="50.37923" lon="3.41069">
        <ele>23.88</ele>
        <time>2024-05-13T12:38:55.176Z</time>
      </trkpt>
      <trkpt lat="50.37953" lon="3.41016">
        <ele>24.31</ele>
        <time>2024-05-13T12:38:59.750Z</time>
      </trkpt>
      <trkpt lat="50.38003" lon="3.40926">
        <ele>24.73</ele>
        <time>2024-05-13T12:39:04.336Z</time>
      </trkpt>
      <trkpt lat="50.38038" lon="3.40865">
        <ele>24.96</ele>
        <time>2024-05-13T12:39:08.930Z</time>
      </trkpt>
      <trkpt lat="50.38046" lon="3.40849">
        <ele>25.13</ele>
        <time>2024-05-13T12:39:13.526Z</time>
      </trkpt>
      <trkpt lat="50.38048" lon="3.40838">
        <ele>25.19</ele>
        <time>2024-05-13T12:39:18.124Z</time>
      </trkpt>
      <trkpt lat="50.38045" lon="3.40841">
        <ele>25.23</ele>
        <time>2024-05-13T12:39:22.722Z</time>
      </trkpt>
      <trkpt lat="50.38035" lon="3.40832">
        <ele>25.14</ele>
        <time>2024-05-13T12:39:27.322Z</time>
      </trkpt>
      <trkpt lat="50.38001" lon="3.40792">
        <ele>25.02</ele>
        <time>2024-05-13T12:39:31.929Z</time>
      </trkpt>
      <trkpt lat="50.3795" lon="3.40732">
        <ele>25.04</ele>
        <time>2024-05-13T12:39:36.546Z</time>
      </trkpt>
      <trkpt lat="50.37941" lon="3.40719">
        <ele>24.91</ele>
        <time>2024-05-13T12:39:41.165Z</time>
      </trkpt>
      <trkpt lat="50.37914" lon="3.40668">
        <ele>24.61</ele>
        <time>2024-05-13T12:39:45.791Z</time>
      </trkpt>
      <trkpt lat="50.37909" lon="3.40659">
        <ele>24.41</ele>
        <time>2024-05-13T12:39:50.418Z</time>
      </trkpt>
      <trkpt lat="50.37879" lon="3.40602">
        <ele>24.21</ele>
        <time>2024-05-13T12:39:55.053Z</time>
      </trkpt>
      <trkpt lat="50.37827" lon="3.40514">
        <ele>23.71</ele>
        <time>2024-05-13T12:39:59.700Z</time>
      </trkpt>
      <trkpt lat="50.37816" lon="3.40496">
        <ele>23.42</ele>
        <time>2024-05-13T12:40:04.349Z</time>
      </trkpt>
      <trkpt lat="50.37813" lon="3.40486">
        <ele>23.05</ele>
        <time>2024-05-13T12:40:09.000Z</time>
      </trkpt>
      <trkpt lat="50.37752" lon="3.40395">
        <ele>22.59</ele>
        <time>2024-05-13T12:40:13.664Z</time>
      </trkpt>
      <trkpt lat="50.37717" lon="3.4035">
        <ele>22.14</ele>
        <time>2024-05-13T12:40:18.335Z</time>
      </trkpt>
      <trkpt lat="50.37643" lon="3.40254">
        <ele>21.51</ele>
        <time>2024-05-13T12:40:23.022Z</time>
      </trkpt>
      <trkpt lat="50.3758" lon="3.40167">
        <ele>21.1</ele>
        <time>2024-05-13T12:40:27.722Z</time>
      </trkpt>
      <trkpt lat="50.37541" lon="3.40125">
        <ele>20.88</ele>
        <time>2024-05-13T12:40:32.430Z</time>
      </trkpt>
      <trkpt lat="50.37486" lon="3.40074">
        <ele>20.8</ele>
        <time>2024-05-13T12:40:37.148Z</time>
      </trkpt>
      <trkpt lat="50.37456" lon="3.40038">
        <ele>20.85</ele>
        <time>2024-05-13T12:40:41.872Z</time>
      </trkpt>
      <trkpt lat="50.37448" lon="3.40015">
        <ele>20.86</ele>
        <time>2024-05-13T12:40:46.599Z</time>
      </trkpt>
      <trkpt lat="50.37447" lon="3.40001">
        <ele>20.95</ele>
        <time>2024-05-13T12:40:51.327Z</time>
      </trkpt>
      <trkpt lat="50.37444" lon="3.39912">
        <ele>21.2</ele>
        <time>2024-05-13T12:40:56.064Z</time>
      </trkpt>
      <trkpt lat="50.37437" lon="3.39916">
        <ele>21.31</ele>
        <time>2024-05-13T12:41:00.803Z</time>
      </trkpt>
      <trkpt lat="50.37436" lon="3.3991">
        <ele>21.46</ele>
        <time>2024-05-13T12:41:05.542Z</time>
      </trkpt>
      <trkpt lat="50.37434" lon="3.39908">
        <ele>21.6</ele>
        <time>2024-05-13T12:41:10.282Z</time>
      </trkpt>
    </trkseg>
  </trk>
</gpx>